MMGM

General José María Yáñez International Airport

Guaymas, Mexico
TAF COR MMGM 201752Z 2018/2118 36010KT P6SM SKC BECMG 2020/2021 28015KT FM210200 00000KT P6SM SKC BECMG 2115/2115 18005KT SCT250
Issued Valid From Valid To
Jan-20 @ 17:52 UTC
(4 hours ago)
Jan-20 @ 18:00 UTC
(4 hours ago)
Jan-21 @ 18:00 UTC
(in 20 hours)
Expired Click to View Jan-20 @ 18:00 to Jan-20 @ 20:00
TAF COR MMGM 201752Z 2018/2118 36010KT P6SM SKC
Wind Visibility Clouds
360° at 10 knots Greater than 6 miles
  • Clear skies
Becoming Jan-20 @ 20:00 to Jan-21 @ 02:00
BECMG 2020/2021 28015KT
Wind Visibility Clouds
280° at 15 knots Greater than 6 miles
  • Clear skies
From Jan-21 @ 02:00 to Jan-21 @ 15:00
FM210200 00000KT P6SM SKC
Visibility Clouds
Greater than 6 miles
  • Clear skies
Becoming Jan-21 @ 15:00 to Jan-21 @ 18:00
BECMG 2115/2115 18005KT SCT250
Wind Visibility Clouds
180° at 5 knots Greater than 6 miles
  • Scattered at 25,000' AGL
TAF COR MMGM 201752Z 2018/2118 36010KT P6SM SKC BECMG 2020/2021 28015KT FM210200 00000KT P6SM SKC BECMG 2115/2115 18005KT SCT250
Issued Jan-20 @ 17:52 UTC
(4 hours ago)
Valid From Jan-20 @ 18:00 UTC
(4 hours ago)
Valid To Jan-21 @ 18:00 UTC
(in 20 hours)
Jan-20 @ 18:00 - Jan-20 @ 20:00
Wind Visibility
360° at 10 knots Greater than 6 miles
Clouds
  • Clear skies
Becoming Jan-20 @ 20:00 - Jan-21 @ 02:00
Wind Visibility
280° at 15 knots Greater than 6 miles
Clouds
  • Clear skies
From Jan-21 @ 02:00 - Jan-21 @ 15:00
Clouds
  • Clear skies
Becoming Jan-21 @ 15:00 - Jan-21 @ 18:00
Wind Visibility
180° at 5 knots Greater than 6 miles
Clouds
  • Scattered at 25,000' AGL